sensor_id;sensor_type;location;lat;lon;timestamp;P1;durP1;ratioP1;P2;durP2;ratioP2
13208;SDS011;6669;42.678;23.332;2022-12-20T00:01:53;6.30;;;3.60;;
13208;SDS011;6669;42.678;23.332;2022-12-20T00:04:21;5.93;;;3.80;;
13208;SDS011;6669;42.678;23.332;2022-12-20T00:06:49;5.83;;;3.80;;
13208;SDS011;6669;42.678;23.332;2022-12-20T00:09:19;5.23;;;3.80;;
13208;SDS011;6669;42.678;23.332;2022-12-20T00:11:47;7.07;;;3.60;;
13208;SDS011;6669;42.678;23.332;2022-12-20T00:14:15;6.47;;;4.10;;
13208;SDS011;6669;42.678;23.332;2022-12-20T00:16:43;5.77;;;3.77;;
13208;SDS011;6669;42.678;23.332;2022-12-20T00:19:11;6.50;;;3.90;;
13208;SDS011;6669;42.678;23.332;2022-12-20T00:21:39;6.03;;;3.93;;
13208;SDS011;6669;42.678;23.332;2022-12-20T00:24:08;5.53;;;3.20;;
13208;SDS011;6669;42.678;23.332;2022-12-20T00:26:38;6.13;;;3.90;;
13208;SDS011;6669;42.678;23.332;2022-12-20T00:29:06;7.63;;;4.03;;
13208;SDS011;6669;42.678;23.332;2022-12-20T00:31:34;4.53;;;3.63;;
13208;SDS011;6669;42.678;23.332;2022-12-20T00:34:02;6.33;;;3.63;;
13208;SDS011;6669;42.678;23.332;2022-12-20T00:36:31;5.17;;;3.67;;
13208;SDS011;6669;42.678;23.332;2022-12-20T00:38:59;4.60;;;3.13;;
13208;SDS011;6669;42.678;23.332;2022-12-20T00:41:29;5.13;;;3.63;;
13208;SDS011;6669;42.678;23.332;2022-12-20T00:43:59;4.47;;;3.77;;
13208;SDS011;6669;42.678;23.332;2022-12-20T00:46:27;5.33;;;3.50;;
13208;SDS011;6669;42.678;23.332;2022-12-20T00:48:57;5.47;;;3.33;;
13208;SDS011;6669;42.678;23.332;2022-12-20T00:51:26;3.87;;;3.40;;
13208;SDS011;6669;42.678;23.332;2022-12-20T00:53:55;4.97;;;3.43;;
13208;SDS011;6669;42.678;23.332;2022-12-20T00:56:24;4.23;;;2.90;;
13208;SDS011;6669;42.678;23.332;2022-12-20T00:58:52;4.90;;;3.30;;
13208;SDS011;6669;42.678;23.332;2022-12-20T01:01:22;4.10;;;3.17;;
13208;SDS011;6669;42.678;23.332;2022-12-20T01:03:52;4.10;;;3.07;;
13208;SDS011;6669;42.678;23.332;2022-12-20T01:06:21;4.73;;;3.43;;
13208;SDS011;6669;42.678;23.332;2022-12-20T01:08:50;3.83;;;2.97;;
13208;SDS011;6669;42.678;23.332;2022-12-20T01:11:19;4.10;;;3.03;;
13208;SDS011;6669;42.678;23.332;2022-12-20T01:13:49;4.67;;;3.37;;
13208;SDS011;6669;42.678;23.332;2022-12-20T01:16:20;4.73;;;3.30;;
13208;SDS011;6669;42.678;23.332;2022-12-20T01:18:51;4.03;;;3.10;;
13208;SDS011;6669;42.678;23.332;2022-12-20T01:21:20;4.47;;;3.17;;
13208;SDS011;6669;42.678;23.332;2022-12-20T01:23:49;4.17;;;3.10;;
13208;SDS011;6669;42.678;23.332;2022-12-20T01:26:18;5.87;;;3.57;;
13208;SDS011;6669;42.678;23.332;2022-12-20T01:28:51;4.53;;;2.80;;
13208;SDS011;6669;42.678;23.332;2022-12-20T01:31:21;3.93;;;2.90;;
13208;SDS011;6669;42.678;23.332;2022-12-20T01:33:50;4.40;;;3.27;;
13208;SDS011;6669;42.678;23.332;2022-12-20T01:36:19;3.90;;;2.73;;
13208;SDS011;6669;42.678;23.332;2022-12-20T01:38:54;4.67;;;3.20;;
13208;SDS011;6669;42.678;23.332;2022-12-20T01:41:22;5.17;;;3.23;;
13208;SDS011;6669;42.678;23.332;2022-12-20T01:43:51;3.57;;;2.70;;
13208;SDS011;6669;42.678;23.332;2022-12-20T01:46:23;4.37;;;2.90;;
13208;SDS011;6669;42.678;23.332;2022-12-20T01:48:53;3.87;;;3.07;;
13208;SDS011;6669;42.678;23.332;2022-12-20T01:51:25;5.03;;;3.40;;
13208;SDS011;6669;42.678;23.332;2022-12-20T01:53:56;4.97;;;3.20;;
13208;SDS011;6669;42.678;23.332;2022-12-20T01:56:28;4.80;;;3.37;;
13208;SDS011;6669;42.678;23.332;2022-12-20T01:58:57;4.23;;;3.00;;
13208;SDS011;6669;42.678;23.332;2022-12-20T02:01:28;3.90;;;2.83;;
13208;SDS011;6669;42.678;23.332;2022-12-20T02:03:57;5.00;;;3.20;;
13208;SDS011;6669;42.678;23.332;2022-12-20T02:06:25;5.50;;;3.07;;
13208;SDS011;6669;42.678;23.332;2022-12-20T02:08:54;3.43;;;2.83;;
13208;SDS011;6669;42.678;23.332;2022-12-20T02:11:36;3.83;;;2.77;;
13208;SDS011;6669;42.678;23.332;2022-12-20T02:14:24;4.90;;;3.43;;
13208;SDS011;6669;42.678;23.332;2022-12-20T02:17:06;4.70;;;2.93;;
13208;SDS011;6669;42.678;23.332;2022-12-20T02:19:52;3.97;;;3.03;;
13208;SDS011;6669;42.678;23.332;2022-12-20T02:22:38;3.83;;;3.07;;
13208;SDS011;6669;42.678;23.332;2022-12-20T02:25:31;3.37;;;2.50;;
13208;SDS011;6669;42.678;23.332;2022-12-20T02:28:14;4.73;;;3.10;;
13208;SDS011;6669;42.678;23.332;2022-12-20T02:30:59;4.20;;;2.83;;
13208;SDS011;6669;42.678;23.332;2022-12-20T02:33:32;4.83;;;3.23;;
13208;SDS011;6669;42.678;23.332;2022-12-20T02:36:01;4.30;;;2.87;;
13208;SDS011;6669;42.678;23.332;2022-12-20T02:38:30;4.07;;;3.10;;
13208;SDS011;6669;42.678;23.332;2022-12-20T02:41:00;4.47;;;3.67;;
13208;SDS011;6669;42.678;23.332;2022-12-20T02:43:31;5.33;;;3.30;;
13208;SDS011;6669;42.678;23.332;2022-12-20T02:46:22;4.97;;;3.27;;
13208;SDS011;6669;42.678;23.332;2022-12-20T02:48:52;3.30;;;2.93;;
13208;SDS011;6669;42.678;23.332;2022-12-20T02:51:25;5.60;;;3.30;;
13208;SDS011;6669;42.678;23.332;2022-12-20T02:53:57;5.70;;;3.60;;
13208;SDS011;6669;42.678;23.332;2022-12-20T02:56:27;4.10;;;3.10;;
13208;SDS011;6669;42.678;23.332;2022-12-20T02:59:00;4.17;;;3.17;;
13208;SDS011;6669;42.678;23.332;2022-12-20T03:01:35;4.87;;;3.07;;
13208;SDS011;6669;42.678;23.332;2022-12-20T03:04:06;4.40;;;2.80;;
13208;SDS011;6669;42.678;23.332;2022-12-20T03:06:35;4.23;;;2.80;;
13208;SDS011;6669;42.678;23.332;2022-12-20T03:09:03;3.37;;;2.97;;
13208;SDS011;6669;42.678;23.332;2022-12-20T03:11:31;4.40;;;3.17;;
13208;SDS011;6669;42.678;23.332;2022-12-20T03:13:59;5.30;;;3.80;;
13208;SDS011;6669;42.678;23.332;2022-12-20T03:16:27;4.33;;;3.50;;
13208;SDS011;6669;42.678;23.332;2022-12-20T03:18:56;4.53;;;3.33;;
13208;SDS011;6669;42.678;23.332;2022-12-20T03:21:24;3.70;;;3.07;;
13208;SDS011;6669;42.678;23.332;2022-12-20T03:23:52;5.53;;;3.27;;
13208;SDS011;6669;42.678;23.332;2022-12-20T03:26:20;3.70;;;3.07;;
13208;SDS011;6669;42.678;23.332;2022-12-20T03:28:49;5.27;;;3.23;;
13208;SDS011;6669;42.678;23.332;2022-12-20T03:31:17;4.93;;;3.77;;
13208;SDS011;6669;42.678;23.332;2022-12-20T03:33:45;3.90;;;3.33;;
13208;SDS011;6669;42.678;23.332;2022-12-20T03:36:14;4.60;;;3.50;;
13208;SDS011;6669;42.678;23.332;2022-12-20T03:38:42;6.10;;;3.73;;
13208;SDS011;6669;42.678;23.332;2022-12-20T03:41:10;3.67;;;2.97;;
13208;SDS011;6669;42.678;23.332;2022-12-20T03:43:38;5.30;;;3.63;;
13208;SDS011;6669;42.678;23.332;2022-12-20T03:46:06;4.47;;;3.33;;
13208;SDS011;6669;42.678;23.332;2022-12-20T03:48:34;6.97;;;3.97;;
13208;SDS011;6669;42.678;23.332;2022-12-20T03:51:03;4.27;;;3.17;;
13208;SDS011;6669;42.678;23.332;2022-12-20T03:53:32;4.60;;;3.87;;
13208;SDS011;6669;42.678;23.332;2022-12-20T03:56:00;3.97;;;3.50;;
13208;SDS011;6669;42.678;23.332;2022-12-20T03:58:28;4.87;;;4.17;;
13208;SDS011;6669;42.678;23.332;2022-12-20T04:00:57;4.10;;;3.27;;
13208;SDS011;6669;42.678;23.332;2022-12-20T04:03:25;4.63;;;3.43;;
13208;SDS011;6669;42.678;23.332;2022-12-20T04:05:53;5.03;;;3.87;;
13208;SDS011;6669;42.678;23.332;2022-12-20T04:08:21;7.80;;;3.63;;
13208;SDS011;6669;42.678;23.332;2022-12-20T04:10:51;4.67;;;3.60;;
13208;SDS011;6669;42.678;23.332;2022-12-20T04:13:36;7.07;;;3.77;;
13208;SDS011;6669;42.678;23.332;2022-12-20T04:16:04;6.33;;;4.00;;
13208;SDS011;6669;42.678;23.332;2022-12-20T04:18:33;6.07;;;3.87;;
13208;SDS011;6669;42.678;23.332;2022-12-20T04:21:01;5.37;;;3.77;;
13208;SDS011;6669;42.678;23.332;2022-12-20T04:23:29;14.83;;;9.73;;
13208;SDS011;6669;42.678;23.332;2022-12-20T04:25:59;7.30;;;4.40;;
13208;SDS011;6669;42.678;23.332;2022-12-20T04:28:28;5.87;;;4.23;;
13208;SDS011;6669;42.678;23.332;2022-12-20T04:30:56;7.13;;;4.13;;
13208;SDS011;6669;42.678;23.332;2022-12-20T04:33:25;14.30;;;10.40;;
13208;SDS011;6669;42.678;23.332;2022-12-20T04:35:54;10.57;;;6.47;;
13208;SDS011;6669;42.678;23.332;2022-12-20T04:38:22;5.63;;;4.43;;
13208;SDS011;6669;42.678;23.332;2022-12-20T04:40:51;5.30;;;4.03;;
13208;SDS011;6669;42.678;23.332;2022-12-20T04:43:22;8.73;;;4.60;;
13208;SDS011;6669;42.678;23.332;2022-12-20T04:45:51;5.07;;;3.97;;
13208;SDS011;6669;42.678;23.332;2022-12-20T04:48:22;5.03;;;4.10;;
13208;SDS011;6669;42.678;23.332;2022-12-20T04:51:12;5.60;;;3.83;;
13208;SDS011;6669;42.678;23.332;2022-12-20T04:53:40;7.40;;;4.70;;
13208;SDS011;6669;42.678;23.332;2022-12-20T04:56:14;6.00;;;3.83;;
13208;SDS011;6669;42.678;23.332;2022-12-20T04:58:45;7.20;;;4.20;;
13208;SDS011;6669;42.678;23.332;2022-12-20T05:01:17;7.40;;;5.07;;
13208;SDS011;6669;42.678;23.332;2022-12-20T05:03:47;6.10;;;4.33;;
13208;SDS011;6669;42.678;23.332;2022-12-20T05:06:16;11.50;;;7.33;;
13208;SDS011;6669;42.678;23.332;2022-12-20T05:08:44;7.20;;;5.10;;
13208;SDS011;6669;42.678;23.332;2022-12-20T05:11:12;7.97;;;4.73;;
13208;SDS011;6669;42.678;23.332;2022-12-20T05:13:41;16.23;;;11.23;;
13208;SDS011;6669;42.678;23.332;2022-12-20T05:16:10;7.90;;;5.07;;
13208;SDS011;6669;42.678;23.332;2022-12-20T05:18:39;6.10;;;3.93;;
13208;SDS011;6669;42.678;23.332;2022-12-20T05:21:14;5.80;;;4.33;;
13208;SDS011;6669;42.678;23.332;2022-12-20T05:24:00;6.87;;;4.10;;
13208;SDS011;6669;42.678;23.332;2022-12-20T05:26:46;5.50;;;4.37;;
13208;SDS011;6669;42.678;23.332;2022-12-20T05:29:14;7.17;;;4.73;;
13208;SDS011;6669;42.678;23.332;2022-12-20T05:32:12;4.57;;;3.63;;
13208;SDS011;6669;42.678;23.332;2022-12-20T05:34:41;7.83;;;5.43;;
13208;SDS011;6669;42.678;23.332;2022-12-20T05:37:10;6.10;;;4.67;;
13208;SDS011;6669;42.678;23.332;2022-12-20T05:39:38;5.33;;;4.20;;
13208;SDS011;6669;42.678;23.332;2022-12-20T05:42:20;5.50;;;4.10;;
13208;SDS011;6669;42.678;23.332;2022-12-20T05:44:48;7.33;;;4.17;;
13208;SDS011;6669;42.678;23.332;2022-12-20T05:47:18;6.90;;;4.57;;
13208;SDS011;6669;42.678;23.332;2022-12-20T05:49:46;6.00;;;4.93;;
13208;SDS011;6669;42.678;23.332;2022-12-20T05:52:14;5.57;;;4.27;;
13208;SDS011;6669;42.678;23.332;2022-12-20T05:54:42;7.20;;;4.63;;
13208;SDS011;6669;42.678;23.332;2022-12-20T05:57:10;5.77;;;4.57;;
13208;SDS011;6669;42.678;23.332;2022-12-20T05:59:39;6.80;;;4.40;;
13208;SDS011;6669;42.678;23.332;2022-12-20T06:02:09;6.17;;;4.17;;
13208;SDS011;6669;42.678;23.332;2022-12-20T06:05:01;5.27;;;4.53;;
13208;SDS011;6669;42.678;23.332;2022-12-20T06:07:57;5.50;;;4.13;;
13208;SDS011;6669;42.678;23.332;2022-12-20T06:10:53;6.37;;;4.43;;
13208;SDS011;6669;42.678;23.332;2022-12-20T06:13:48;5.83;;;4.87;;
13208;SDS011;6669;42.678;23.332;2022-12-20T06:16:44;6.17;;;4.37;;
13208;SDS011;6669;42.678;23.332;2022-12-20T06:19:44;6.20;;;4.83;;
13208;SDS011;6669;42.678;23.332;2022-12-20T06:29:04;6.57;;;5.07;;
13208;SDS011;6669;42.678;23.332;2022-12-20T06:31:48;6.70;;;4.87;;
13208;SDS011;6669;42.678;23.332;2022-12-20T06:34:44;6.30;;;4.37;;
13208;SDS011;6669;42.678;23.332;2022-12-20T06:37:39;6.20;;;4.50;;
13208;SDS011;6669;42.678;23.332;2022-12-20T06:40:36;6.33;;;4.20;;
13208;SDS011;6669;42.678;23.332;2022-12-20T06:43:32;7.03;;;4.30;;
13208;SDS011;6669;42.678;23.332;2022-12-20T07:03:56;6.83;;;4.43;;
13208;SDS011;6669;42.678;23.332;2022-12-20T07:06:52;10.63;;;7.20;;
13208;SDS011;6669;42.678;23.332;2022-12-20T07:09:34;10.00;;;7.60;;
13208;SDS011;6669;42.678;23.332;2022-12-20T07:12:30;19.13;;;15.40;;
13208;SDS011;6669;42.678;23.332;2022-12-20T07:15:27;10.10;;;7.13;;
13208;SDS011;6669;42.678;23.332;2022-12-20T07:18:23;5.47;;;3.93;;
13208;SDS011;6669;42.678;23.332;2022-12-20T08:01:06;4.50;;;3.37;;
13208;SDS011;6669;42.678;23.332;2022-12-20T08:04:05;5.33;;;3.80;;
13208;SDS011;6669;42.678;23.332;2022-12-20T08:07:17;7.77;;;4.20;;
13208;SDS011;6669;42.678;23.332;2022-12-20T08:10:15;11.27;;;5.27;;
13208;SDS011;6669;42.678;23.332;2022-12-20T08:13:11;5.43;;;4.53;;
13208;SDS011;6669;42.678;23.332;2022-12-20T08:25:55;4.40;;;3.33;;
13208;SDS011;6669;42.678;23.332;2022-12-20T08:28:54;5.30;;;3.47;;
13208;SDS011;6669;42.678;23.332;2022-12-20T08:31:38;4.40;;;3.10;;
13208;SDS011;6669;42.678;23.332;2022-12-20T08:34:27;4.90;;;3.53;;
13208;SDS011;6669;42.678;23.332;2022-12-20T08:37:25;7.33;;;4.03;;
13208;SDS011;6669;42.678;23.332;2022-12-20T08:40:20;4.07;;;3.53;;
13208;SDS011;6669;42.678;23.332;2022-12-20T08:43:18;3.60;;;3.30;;
13208;SDS011;6669;42.678;23.332;2022-12-20T08:45:53;5.57;;;3.70;;
13208;SDS011;6669;42.678;23.332;2022-12-20T08:48:24;4.83;;;3.20;;
13208;SDS011;6669;42.678;23.332;2022-12-20T08:51:08;6.00;;;3.57;;
13208;SDS011;6669;42.678;23.332;2022-12-20T08:53:44;6.33;;;3.50;;
13208;SDS011;6669;42.678;23.332;2022-12-20T08:56:44;5.40;;;3.33;;
13208;SDS011;6669;42.678;23.332;2022-12-20T09:06:14;6.90;;;3.80;;
13208;SDS011;6669;42.678;23.332;2022-12-20T09:09:14;5.23;;;3.40;;
13208;SDS011;6669;42.678;23.332;2022-12-20T09:12:10;6.93;;;3.50;;
13208;SDS011;6669;42.678;23.332;2022-12-20T09:15:06;6.27;;;3.30;;
13208;SDS011;6669;42.678;23.332;2022-12-20T09:18:03;7.03;;;3.40;;
13208;SDS011;6669;42.678;23.332;2022-12-20T10:36:46;6.10;;;4.50;;
13208;SDS011;6669;42.678;23.332;2022-12-20T10:40:04;4.67;;;3.70;;
13208;SDS011;6669;42.678;23.332;2022-12-20T10:43:19;5.37;;;3.30;;
13208;SDS011;6669;42.678;23.332;2022-12-20T10:46:11;6.17;;;4.20;;
13208;SDS011;6669;42.678;23.332;2022-12-20T10:48:45;4.23;;;3.43;;
13208;SDS011;6669;42.678;23.332;2022-12-20T10:58:31;6.20;;;3.30;;
13208;SDS011;6669;42.678;23.332;2022-12-20T11:01:18;4.47;;;3.23;;
13208;SDS011;6669;42.678;23.332;2022-12-20T11:04:21;3.80;;;3.00;;
13208;SDS011;6669;42.678;23.332;2022-12-20T11:20:49;3.90;;;2.47;;
13208;SDS011;6669;42.678;23.332;2022-12-20T11:23:57;5.07;;;2.70;;
13208;SDS011;6669;42.678;23.332;2022-12-20T11:27:04;7.03;;;3.87;;
13208;SDS011;6669;42.678;23.332;2022-12-20T11:30:09;6.07;;;3.70;;
13208;SDS011;6669;42.678;23.332;2022-12-20T11:33:13;4.00;;;3.30;;
13208;SDS011;6669;42.678;23.332;2022-12-20T11:43:26;4.37;;;3.37;;
13208;SDS011;6669;42.678;23.332;2022-12-20T11:46:42;6.37;;;3.80;;
13208;SDS011;6669;42.678;23.332;2022-12-20T11:49:55;6.20;;;3.37;;
13208;SDS011;6669;42.678;23.332;2022-12-20T11:53:15;3.10;;;2.37;;
13208;SDS011;6669;42.678;23.332;2022-12-20T12:51:18;6.75;;;4.80;;
13208;SDS011;6669;42.678;23.332;2022-12-20T12:54:15;7.93;;;4.72;;
13208;SDS011;6669;42.678;23.332;2022-12-20T12:57:14;5.00;;;2.80;;
13208;SDS011;6669;42.678;23.332;2022-12-20T12:59:58;4.63;;;2.90;;
13208;SDS011;6669;42.678;23.332;2022-12-20T13:02:54;5.63;;;3.27;;
13208;SDS011;6669;42.678;23.332;2022-12-20T13:05:37;7.25;;;4.88;;
13208;SDS011;6669;42.678;23.332;2022-12-20T13:50:49;3.27;;;2.60;;
13208;SDS011;6669;42.678;23.332;2022-12-20T13:53:20;4.70;;;3.03;;
13208;SDS011;6669;42.678;23.332;2022-12-20T13:56:19;6.27;;;3.70;;
13208;SDS011;6669;42.678;23.332;2022-12-20T13:59:26;5.20;;;3.83;;
13208;SDS011;6669;42.678;23.332;2022-12-20T14:02:28;6.83;;;4.13;;
13208;SDS011;6669;42.678;23.332;2022-12-20T14:29:39;6.20;;;3.60;;
13208;SDS011;6669;42.678;23.332;2022-12-20T14:32:39;6.37;;;4.03;;
13208;SDS011;6669;42.678;23.332;2022-12-20T14:35:47;4.87;;;3.80;;
13208;SDS011;6669;42.678;23.332;2022-12-20T14:38:45;8.87;;;5.27;;
13208;SDS011;6669;42.678;23.332;2022-12-20T14:41:54;7.30;;;4.87;;
13208;SDS011;6669;42.678;23.332;2022-12-20T15:38:08;3.50;;;2.50;;
13208;SDS011;6669;42.678;23.332;2022-12-20T15:41:10;2.90;;;2.13;;
13208;SDS011;6669;42.678;23.332;2022-12-20T15:44:18;4.87;;;2.63;;
13208;SDS011;6669;42.678;23.332;2022-12-20T15:47:16;8.60;;;4.60;;
13208;SDS011;6669;42.678;23.332;2022-12-20T16:25:29;5.70;;;2.60;;
13208;SDS011;6669;42.678;23.332;2022-12-20T16:28:32;4.23;;;2.70;;
13208;SDS011;6669;42.678;23.332;2022-12-20T16:31:08;6.00;;;4.07;;
13208;SDS011;6669;42.678;23.332;2022-12-20T16:33:38;4.70;;;2.50;;
13208;SDS011;6669;42.678;23.332;2022-12-20T16:36:37;2.80;;;2.07;;
13208;SDS011;6669;42.678;23.332;2022-12-20T17:08:29;5.80;;;2.03;;
13208;SDS011;6669;42.678;23.332;2022-12-20T17:11:15;2.53;;;1.77;;
13208;SDS011;6669;42.678;23.332;2022-12-20T17:13:49;2.93;;;1.70;;
13208;SDS011;6669;42.678;23.332;2022-12-20T17:17:05;4.13;;;1.90;;
13208;SDS011;6669;42.678;23.332;2022-12-20T17:20:07;2.57;;;1.87;;
13208;SDS011;6669;42.678;23.332;2022-12-20T17:25:47;3.80;;;1.73;;
13208;SDS011;6669;42.678;23.332;2022-12-20T17:28:43;2.60;;;1.97;;
13208;SDS011;6669;42.678;23.332;2022-12-20T17:31:40;2.73;;;2.00;;
13208;SDS011;6669;42.678;23.332;2022-12-20T17:34:39;4.67;;;2.20;;
13208;SDS011;6669;42.678;23.332;2022-12-20T17:37:35;3.13;;;2.47;;
13208;SDS011;6669;42.678;23.332;2022-12-20T17:46:41;4.80;;;2.93;;
13208;SDS011;6669;42.678;23.332;2022-12-20T17:49:09;4.97;;;3.10;;
13208;SDS011;6669;42.678;23.332;2022-12-20T17:51:41;5.57;;;3.50;;
13208;SDS011;6669;42.678;23.332;2022-12-20T17:54:12;6.77;;;3.83;;
13208;SDS011;6669;42.678;23.332;2022-12-20T17:56:45;5.13;;;3.90;;
13208;SDS011;6669;42.678;23.332;2022-12-20T17:59:33;5.63;;;3.80;;
13208;SDS011;6669;42.678;23.332;2022-12-20T18:05:16;7.32;;;4.60;;
13208;SDS011;6669;42.678;23.332;2022-12-20T18:07:50;4.37;;;3.80;;
13208;SDS011;6669;42.678;23.332;2022-12-20T18:10:20;4.83;;;3.23;;
13208;SDS011;6669;42.678;23.332;2022-12-20T18:12:49;5.23;;;3.30;;
13208;SDS011;6669;42.678;23.332;2022-12-20T18:15:18;6.97;;;3.77;;
13208;SDS011;6669;42.678;23.332;2022-12-20T18:17:48;5.10;;;3.40;;
13208;SDS011;6669;42.678;23.332;2022-12-20T18:20:16;5.63;;;3.87;;
13208;SDS011;6669;42.678;23.332;2022-12-20T18:22:55;9.30;;;4.03;;
13208;SDS011;6669;42.678;23.332;2022-12-20T18:25:28;6.57;;;3.63;;
13208;SDS011;6669;42.678;23.332;2022-12-20T18:28:10;5.47;;;4.30;;
13208;SDS011;6669;42.678;23.332;2022-12-20T18:30:40;7.53;;;3.77;;
13208;SDS011;6669;42.678;23.332;2022-12-20T18:33:15;5.97;;;4.20;;
13208;SDS011;6669;42.678;23.332;2022-12-20T18:35:44;6.17;;;4.17;;
13208;SDS011;6669;42.678;23.332;2022-12-20T18:38:12;17.90;;;12.27;;
13208;SDS011;6669;42.678;23.332;2022-12-20T18:40:43;6.97;;;4.37;;
13208;SDS011;6669;42.678;23.332;2022-12-20T18:43:12;7.43;;;4.07;;
13208;SDS011;6669;42.678;23.332;2022-12-20T18:45:40;6.23;;;4.10;;
13208;SDS011;6669;42.678;23.332;2022-12-20T18:48:09;6.77;;;4.07;;
13208;SDS011;6669;42.678;23.332;2022-12-20T18:50:39;6.87;;;3.53;;
13208;SDS011;6669;42.678;23.332;2022-12-20T18:53:09;5.43;;;3.80;;
13208;SDS011;6669;42.678;23.332;2022-12-20T18:55:37;5.53;;;3.77;;
13208;SDS011;6669;42.678;23.332;2022-12-20T18:58:06;10.03;;;3.70;;
13208;SDS011;6669;42.678;23.332;2022-12-20T19:00:35;6.43;;;4.30;;
13208;SDS011;6669;42.678;23.332;2022-12-20T19:03:04;5.33;;;3.57;;
13208;SDS011;6669;42.678;23.332;2022-12-20T19:05:33;6.10;;;3.83;;
13208;SDS011;6669;42.678;23.332;2022-12-20T19:08:13;5.13;;;3.67;;
13208;SDS011;6669;42.678;23.332;2022-12-20T19:10:41;5.73;;;3.60;;
13208;SDS011;6669;42.678;23.332;2022-12-20T19:13:12;5.70;;;3.40;;
13208;SDS011;6669;42.678;23.332;2022-12-20T19:15:41;4.03;;;3.20;;
13208;SDS011;6669;42.678;23.332;2022-12-20T19:18:10;3.83;;;3.00;;
13208;SDS011;6669;42.678;23.332;2022-12-20T19:20:39;5.13;;;3.60;;
13208;SDS011;6669;42.678;23.332;2022-12-20T19:23:09;4.03;;;3.10;;
13208;SDS011;6669;42.678;23.332;2022-12-20T19:25:40;3.50;;;2.90;;
13208;SDS011;6669;42.678;23.332;2022-12-20T19:28:09;3.97;;;3.33;;
13208;SDS011;6669;42.678;23.332;2022-12-20T19:30:39;5.40;;;3.27;;
13208;SDS011;6669;42.678;23.332;2022-12-20T19:33:07;3.77;;;2.93;;
13208;SDS011;6669;42.678;23.332;2022-12-20T19:35:36;3.57;;;2.67;;
13208;SDS011;6669;42.678;23.332;2022-12-20T19:38:21;3.03;;;2.60;;
13208;SDS011;6669;42.678;23.332;2022-12-20T19:40:52;3.50;;;2.97;;
13208;SDS011;6669;42.678;23.332;2022-12-20T19:43:21;4.67;;;3.23;;
13208;SDS011;6669;42.678;23.332;2022-12-20T19:45:49;3.93;;;3.23;;
13208;SDS011;6669;42.678;23.332;2022-12-20T19:48:17;4.23;;;2.57;;
13208;SDS011;6669;42.678;23.332;2022-12-20T19:50:46;3.40;;;2.40;;
13208;SDS011;6669;42.678;23.332;2022-12-20T19:53:15;3.00;;;2.33;;
13208;SDS011;6669;42.678;23.332;2022-12-20T19:55:51;3.30;;;2.53;;
13208;SDS011;6669;42.678;23.332;2022-12-20T19:58:20;3.93;;;3.20;;
13208;SDS011;6669;42.678;23.332;2022-12-20T20:00:49;5.10;;;3.53;;
13208;SDS011;6669;42.678;23.332;2022-12-20T20:03:21;3.70;;;2.67;;
13208;SDS011;6669;42.678;23.332;2022-12-20T20:05:55;3.10;;;2.80;;
13208;SDS011;6669;42.678;23.332;2022-12-20T20:08:25;5.80;;;2.83;;
13208;SDS011;6669;42.678;23.332;2022-12-20T20:10:55;3.33;;;2.60;;
13208;SDS011;6669;42.678;23.332;2022-12-20T20:13:34;4.10;;;2.63;;
13208;SDS011;6669;42.678;23.332;2022-12-20T20:16:04;3.13;;;2.50;;
13208;SDS011;6669;42.678;23.332;2022-12-20T20:18:35;3.13;;;2.40;;
13208;SDS011;6669;42.678;23.332;2022-12-20T20:21:05;3.53;;;2.37;;
13208;SDS011;6669;42.678;23.332;2022-12-20T20:23:35;6.63;;;3.47;;
13208;SDS011;6669;42.678;23.332;2022-12-20T20:26:09;3.23;;;2.87;;
13208;SDS011;6669;42.678;23.332;2022-12-20T20:28:41;3.27;;;2.03;;
13208;SDS011;6669;42.678;23.332;2022-12-20T20:31:11;4.63;;;2.77;;
13208;SDS011;6669;42.678;23.332;2022-12-20T20:33:41;4.77;;;2.80;;
13208;SDS011;6669;42.678;23.332;2022-12-20T20:36:11;3.20;;;2.53;;
13208;SDS011;6669;42.678;23.332;2022-12-20T20:38:40;4.00;;;3.03;;
13208;SDS011;6669;42.678;23.332;2022-12-20T20:41:11;3.67;;;2.93;;
13208;SDS011;6669;42.678;23.332;2022-12-20T20:43:40;3.60;;;2.73;;
13208;SDS011;6669;42.678;23.332;2022-12-20T20:46:11;4.00;;;3.00;;
13208;SDS011;6669;42.678;23.332;2022-12-20T20:48:42;3.73;;;2.73;;
13208;SDS011;6669;42.678;23.332;2022-12-20T20:51:13;4.97;;;2.97;;
13208;SDS011;6669;42.678;23.332;2022-12-20T20:53:42;5.77;;;3.00;;
13208;SDS011;6669;42.678;23.332;2022-12-20T20:56:11;4.03;;;2.87;;
13208;SDS011;6669;42.678;23.332;2022-12-20T20:58:39;5.57;;;3.53;;
13208;SDS011;6669;42.678;23.332;2022-12-20T21:01:13;4.53;;;3.40;;
13208;SDS011;6669;42.678;23.332;2022-12-20T21:03:42;4.53;;;3.30;;
13208;SDS011;6669;42.678;23.332;2022-12-20T21:06:11;3.80;;;2.90;;
13208;SDS011;6669;42.678;23.332;2022-12-20T21:08:59;4.80;;;3.50;;
13208;SDS011;6669;42.678;23.332;2022-12-20T21:11:29;5.33;;;2.93;;
13208;SDS011;6669;42.678;23.332;2022-12-20T21:13:58;4.60;;;3.10;;
13208;SDS011;6669;42.678;23.332;2022-12-20T21:16:27;5.57;;;3.10;;
13208;SDS011;6669;42.678;23.332;2022-12-20T21:18:56;4.90;;;3.47;;
13208;SDS011;6669;42.678;23.332;2022-12-20T21:21:25;3.83;;;2.80;;
13208;SDS011;6669;42.678;23.332;2022-12-20T21:23:54;4.40;;;2.97;;
13208;SDS011;6669;42.678;23.332;2022-12-20T21:26:22;3.30;;;2.60;;
13208;SDS011;6669;42.678;23.332;2022-12-20T21:28:56;4.83;;;3.30;;
13208;SDS011;6669;42.678;23.332;2022-12-20T21:31:24;4.83;;;3.30;;
13208;SDS011;6669;42.678;23.332;2022-12-20T21:33:53;5.50;;;3.07;;
13208;SDS011;6669;42.678;23.332;2022-12-20T21:36:22;4.13;;;3.00;;
13208;SDS011;6669;42.678;23.332;2022-12-20T21:38:51;4.63;;;3.30;;
13208;SDS011;6669;42.678;23.332;2022-12-20T21:41:21;5.57;;;3.57;;
13208;SDS011;6669;42.678;23.332;2022-12-20T21:43:53;4.20;;;3.10;;
13208;SDS011;6669;42.678;23.332;2022-12-20T21:46:24;3.50;;;3.03;;
13208;SDS011;6669;42.678;23.332;2022-12-20T21:48:52;5.53;;;3.10;;
13208;SDS011;6669;42.678;23.332;2022-12-20T21:51:22;3.70;;;2.83;;
13208;SDS011;6669;42.678;23.332;2022-12-20T21:53:51;4.83;;;3.43;;
13208;SDS011;6669;42.678;23.332;2022-12-20T21:56:22;5.17;;;3.57;;
13208;SDS011;6669;42.678;23.332;2022-12-20T21:58:51;6.97;;;4.13;;
13208;SDS011;6669;42.678;23.332;2022-12-20T22:01:22;9.30;;;3.37;;
13208;SDS011;6669;42.678;23.332;2022-12-20T22:03:52;8.83;;;3.90;;
13208;SDS011;6669;42.678;23.332;2022-12-20T22:06:21;5.83;;;3.90;;
13208;SDS011;6669;42.678;23.332;2022-12-20T22:08:50;5.80;;;4.57;;
13208;SDS011;6669;42.678;23.332;2022-12-20T22:11:19;7.00;;;4.40;;
13208;SDS011;6669;42.678;23.332;2022-12-20T22:13:47;6.07;;;4.33;;
13208;SDS011;6669;42.678;23.332;2022-12-20T22:16:17;7.23;;;5.20;;
13208;SDS011;6669;42.678;23.332;2022-12-20T22:18:49;8.43;;;4.80;;
13208;SDS011;6669;42.678;23.332;2022-12-20T22:21:20;7.43;;;5.70;;
13208;SDS011;6669;42.678;23.332;2022-12-20T22:23:49;7.70;;;5.60;;
13208;SDS011;6669;42.678;23.332;2022-12-20T22:26:19;11.97;;;7.13;;
13208;SDS011;6669;42.678;23.332;2022-12-20T22:28:49;8.67;;;6.37;;
13208;SDS011;6669;42.678;23.332;2022-12-20T22:31:18;11.63;;;7.50;;
13208;SDS011;6669;42.678;23.332;2022-12-20T22:33:49;13.17;;;8.17;;
13208;SDS011;6669;42.678;23.332;2022-12-20T22:36:18;12.83;;;7.50;;
13208;SDS011;6669;42.678;23.332;2022-12-20T22:38:46;11.87;;;7.03;;
13208;SDS011;6669;42.678;23.332;2022-12-20T22:41:16;11.83;;;8.30;;
13208;SDS011;6669;42.678;23.332;2022-12-20T22:43:46;9.13;;;7.20;;
13208;SDS011;6669;42.678;23.332;2022-12-20T22:46:15;12.77;;;8.77;;
13208;SDS011;6669;42.678;23.332;2022-12-20T22:48:44;14.17;;;7.30;;
13208;SDS011;6669;42.678;23.332;2022-12-20T22:51:16;9.40;;;5.90;;
13208;SDS011;6669;42.678;23.332;2022-12-20T22:53:45;10.93;;;7.30;;
13208;SDS011;6669;42.678;23.332;2022-12-20T22:56:15;6.67;;;4.80;;
13208;SDS011;6669;42.678;23.332;2022-12-20T22:58:46;12.23;;;7.43;;
13208;SDS011;6669;42.678;23.332;2022-12-20T23:01:16;16.87;;;9.60;;